createdAt,value
2022-08-18T00:01:16.666Z,10.37
2022-08-18T00:04:17.632Z,11.00
2022-08-18T00:07:16.213Z,8.57
2022-08-18T00:10:03.670Z,9.18
2022-08-18T00:12:50.769Z,7.85
2022-08-18T00:15:48.689Z,10.20
2022-08-18T00:18:36.299Z,7.00
2022-08-18T00:21:23.315Z,10.77
2022-08-18T00:24:11.548Z,10.85
2022-08-18T00:26:58.274Z,11.52
2022-08-18T00:29:45.300Z,7.70
2022-08-18T00:32:33.823Z,8.43
2022-08-18T00:35:21.983Z,7.28
2022-08-18T00:38:10.241Z,7.38
2022-08-18T00:41:13.438Z,7.07
2022-08-18T00:44:00.350Z,8.75
2022-08-18T00:46:46.914Z,12.63
2022-08-18T00:49:33.984Z,10.00
2022-08-18T00:52:21.708Z,15.20
2022-08-18T00:55:08.612Z,7.97
2022-08-18T00:58:01.734Z,10.82
2022-08-18T01:00:49.955Z,9.75
2022-08-18T01:03:39.746Z,10.23
2022-08-18T01:06:32.334Z,10.32
2022-08-18T01:09:19.305Z,7.38
2022-08-18T01:12:28.015Z,12.63
2022-08-18T01:15:27.851Z,10.65
2022-08-18T01:18:34.646Z,11.18
2022-08-18T01:21:41.775Z,10.20
2022-08-18T01:24:53.443Z,10.70
2022-08-18T01:27:41.824Z,8.35
2022-08-18T01:30:28.538Z,9.37
2022-08-18T01:33:16.597Z,7.95
2022-08-18T01:36:16.368Z,13.35
2022-08-18T01:39:03.418Z,8.77
2022-08-18T01:41:51.813Z,7.97
2022-08-18T01:44:40.496Z,10.43
2022-08-18T01:47:28.685Z,12.88
2022-08-18T01:50:18.393Z,8.48
2022-08-18T01:53:05.943Z,7.75
2022-08-18T01:55:52.861Z,5.90
2022-08-18T01:58:40.944Z,4.90
2022-08-18T02:01:36.259Z,8.32
2022-08-18T02:04:36.018Z,10.10
2022-08-18T02:07:24.123Z,11.10
2022-08-18T02:10:21.136Z,10.02
2022-08-18T02:13:07.842Z,9.88
2022-08-18T02:15:56.101Z,6.05
2022-08-18T02:18:48.350Z,6.00
2022-08-18T02:21:35.813Z,12.07
2022-08-18T02:24:22.475Z,5.30
2022-08-18T02:27:10.260Z,6.90
2022-08-18T02:30:01.329Z,7.72
2022-08-18T02:32:49.723Z,9.50
2022-08-18T02:35:37.226Z,7.88
2022-08-18T02:38:24.088Z,7.75
2022-08-18T02:41:12.411Z,7.80
2022-08-18T02:43:59.883Z,7.13
2022-08-18T02:46:46.997Z,12.55
2022-08-18T02:49:36.809Z,11.50
2022-08-18T02:52:25.098Z,6.50
2022-08-18T02:55:12.306Z,8.98
2022-08-18T02:58:01.794Z,8.82
2022-08-18T03:00:49.067Z,8.07
2022-08-18T03:03:36.184Z,6.20
2022-08-18T03:06:24.886Z,7.13
2022-08-18T03:09:15.036Z,6.57
2022-08-18T03:12:02.376Z,8.80
2022-08-18T03:14:49.449Z,9.60
2022-08-18T03:17:37.814Z,5.35
2022-08-18T03:20:30.450Z,6.55
2022-08-18T03:23:19.641Z,7.95
2022-08-18T03:26:17.768Z,6.20
2022-08-18T03:29:04.363Z,8.25
2022-08-18T03:31:51.577Z,7.15
2022-08-18T03:34:38.734Z,5.93
2022-08-18T03:37:25.646Z,10.15
2022-08-18T03:40:14.307Z,5.57
2022-08-18T03:43:06.401Z,9.15
2022-08-18T03:46:14.254Z,6.57
2022-08-18T03:49:01.923Z,5.45
2022-08-18T03:51:49.127Z,7.30
2022-08-18T03:54:38.896Z,8.23
2022-08-18T03:57:27.141Z,6.82
2022-08-18T04:00:14.451Z,8.00
2022-08-18T04:03:03.935Z,7.25
2022-08-18T04:05:50.771Z,7.95
2022-08-18T04:08:37.351Z,10.40
2022-08-18T04:11:24.060Z,7.43
2022-08-18T04:14:12.603Z,7.75
2022-08-18T04:16:59.749Z,11.57
2022-08-18T04:19:46.873Z,8.85
2022-08-18T04:22:34.875Z,6.75
2022-08-18T04:25:21.821Z,9.75
2022-08-18T04:28:08.622Z,10.23
2022-08-18T04:30:59.303Z,6.78
2022-08-18T04:33:46.179Z,8.90
2022-08-18T04:36:35.060Z,6.95
2022-08-18T04:39:22.074Z,8.50
2022-08-18T04:42:09.318Z,7.97
2022-08-18T04:44:56.511Z,11.02
2022-08-18T04:47:44.839Z,8.68
2022-08-18T04:50:32.183Z,8.60
2022-08-18T04:53:38.881Z,9.65
2022-08-18T04:56:27.652Z,9.23
2022-08-18T04:59:15.625Z,10.53
2022-08-18T05:02:10.255Z,7.43
2022-08-18T05:05:03.306Z,11.10
2022-08-18T05:07:50.428Z,12.13
2022-08-18T05:10:37.356Z,6.47
2022-08-18T05:13:23.938Z,11.65
2022-08-18T05:16:18.176Z,9.05
2022-08-18T05:19:15.645Z,8.35
2022-08-18T05:22:07.749Z,6.20
2022-08-18T05:24:55.787Z,7.65
2022-08-18T05:27:44.185Z,6.38
2022-08-18T05:30:31.226Z,9.90
2022-08-18T05:33:18.038Z,9.13
2022-08-18T05:36:06.488Z,10.93
2022-08-18T05:38:56.398Z,6.97
2022-08-18T05:41:44.494Z,6.75
2022-08-18T05:44:32.403Z,7.15
2022-08-18T05:47:21.262Z,8.68
2022-08-18T05:50:10.366Z,8.00
2022-08-18T05:52:58.544Z,6.82
2022-08-18T05:56:08.219Z,5.95
2022-08-18T05:58:57.360Z,5.97
2022-08-18T06:01:46.829Z,4.45
2022-08-18T06:04:41.813Z,7.50
2022-08-18T06:07:32.667Z,7.13
2022-08-18T06:10:20.833Z,6.32
2022-08-18T06:13:10.855Z,9.13
2022-08-18T06:16:01.946Z,10.05
2022-08-18T06:18:51.062Z,3.97
2022-08-18T06:21:42.123Z,6.53
2022-08-18T06:24:32.149Z,11.00
2022-08-18T06:27:24.354Z,6.30
2022-08-18T06:30:16.812Z,10.05
2022-08-18T06:33:10.005Z,8.55
2022-08-18T06:36:02.594Z,6.87
2022-08-18T06:38:58.203Z,5.65
2022-08-18T06:41:46.401Z,5.55
2022-08-18T06:44:40.676Z,5.67
2022-08-18T06:47:32.577Z,7.87
2022-08-18T06:50:20.184Z,4.93
2022-08-18T06:53:08.141Z,3.55
2022-08-18T06:56:26.214Z,7.03
2022-08-18T06:59:21.486Z,5.75
2022-08-18T07:02:15.997Z,6.32
2022-08-18T07:05:07.884Z,8.60
2022-08-18T07:08:15.769Z,12.07
2022-08-18T07:11:20.166Z,7.65
2022-08-18T07:14:17.002Z,9.20
2022-08-18T07:17:14.605Z,4.38
2022-08-18T07:20:04.925Z,4.20
2022-08-18T07:22:56.044Z,2.88
2022-08-18T07:25:44.857Z,2.40
2022-08-18T07:28:32.853Z,5.10
2022-08-18T07:31:25.840Z,6.03
2022-08-18T07:34:14.804Z,5.10
2022-08-18T07:37:05.890Z,3.70
2022-08-18T07:39:56.527Z,5.55
2022-08-18T07:43:00.708Z,5.30
2022-08-18T07:45:49.170Z,6.38
2022-08-18T07:48:40.030Z,3.47
2022-08-18T07:51:33.876Z,8.02
2022-08-18T07:54:49.506Z,2.70
2022-08-18T07:57:52.873Z,3.35
2022-08-18T08:01:00.487Z,5.97
2022-08-18T08:03:51.786Z,5.80
2022-08-18T08:06:41.146Z,2.45
2022-08-18T08:09:35.363Z,4.25
2022-08-18T08:12:26.635Z,7.57
2022-08-18T08:15:18.657Z,4.57
2022-08-18T08:18:17.204Z,4.25
2022-08-18T08:21:06.301Z,3.60
2022-08-18T08:23:56.081Z,2.83
2022-08-18T08:26:51.826Z,2.65
2022-08-18T08:29:46.292Z,5.55
2022-08-18T08:32:34.138Z,5.37
2022-08-18T08:35:49.445Z,3.42
2022-08-18T08:38:42.710Z,7.13
2022-08-18T08:41:34.409Z,1.80
2022-08-18T08:44:24.125Z,1.73
2022-08-18T08:47:17.103Z,3.88
2022-08-18T08:50:13.122Z,1.35
2022-08-18T08:53:02.937Z,3.75
2022-08-18T08:55:52.546Z,5.13
2022-08-18T08:58:41.647Z,2.45
2022-08-18T09:01:33.528Z,1.33
2022-08-18T09:04:26.589Z,2.57
2022-08-18T09:07:20.961Z,2.03
2022-08-18T09:10:22.310Z,1.83
2022-08-18T09:13:19.075Z,1.40
2022-08-18T09:16:11.243Z,1.65
2022-08-18T09:19:18.697Z,0.98
2022-08-18T09:22:10.628Z,4.00
2022-08-18T09:24:57.793Z,2.72
2022-08-18T09:28:09.873Z,1.90
2022-08-18T09:30:56.470Z,1.48
2022-08-18T09:33:56.334Z,2.87
2022-08-18T09:36:52.835Z,2.03
2022-08-18T09:39:58.965Z,1.90
2022-08-18T09:42:59.430Z,2.13
2022-08-18T09:45:57.626Z,0.82
2022-08-18T09:48:46.104Z,0.82
2022-08-18T09:51:40.160Z,1.10
2022-08-18T09:54:30.938Z,0.60
2022-08-18T09:57:21.468Z,2.40
2022-08-18T10:00:24.394Z,0.60
2022-08-18T10:03:25.986Z,1.65
2022-08-18T10:06:19.406Z,1.13
2022-08-18T10:09:27.122Z,0.60
2022-08-18T10:12:32.902Z,0.65
2022-08-18T10:15:33.265Z,1.08
2022-08-18T10:18:37.580Z,0.88
2022-08-18T10:24:37.448Z,0.85
2022-08-18T10:27:37.829Z,3.03
2022-08-18T10:30:56.410Z,1.23
2022-08-18T10:33:59.851Z,2.40
2022-08-18T10:36:48.503Z,2.10
2022-08-18T10:39:45.943Z,3.00
2022-08-18T10:42:34.490Z,2.38
2022-08-18T10:45:27.666Z,1.30
2022-08-18T10:48:20.338Z,2.22
2022-08-18T10:51:21.691Z,0.93
2022-08-18T10:54:14.089Z,2.60
2022-08-18T10:57:10.786Z,0.70
2022-08-18T11:00:01.215Z,3.58
2022-08-18T11:03:30.054Z,1.13
2022-08-18T11:06:14.551Z,2.63
2022-08-18T11:09:05.121Z,1.27
2022-08-18T11:11:59.494Z,4.22
2022-08-18T11:15:22.513Z,0.60
2022-08-18T11:18:23.707Z,0.75
2022-08-18T11:21:42.665Z,1.10
2022-08-18T11:24:35.279Z,2.90
2022-08-18T11:27:24.267Z,0.63
2022-08-18T11:30:12.167Z,0.50
2022-08-18T11:33:02.670Z,2.10
2022-08-18T11:35:51.535Z,1.55
2022-08-18T11:38:39.545Z,0.90
2022-08-18T11:41:47.809Z,0.50
2022-08-18T11:44:38.654Z,1.57
2022-08-18T11:50:33.587Z,1.83
2022-08-18T11:53:24.629Z,1.75
2022-08-18T11:56:19.678Z,0.60
2022-08-18T11:59:53.818Z,2.13
2022-08-18T12:02:41.907Z,3.00
2022-08-18T12:05:30.390Z,2.05
2022-08-18T12:11:51.518Z,1.00
2022-08-18T12:14:54.948Z,2.15
2022-08-18T12:17:52.167Z,0.60
2022-08-18T12:20:40.148Z,1.58
2022-08-18T12:23:38.532Z,0.40
2022-08-18T12:26:27.147Z,0.40
2022-08-18T12:29:36.618Z,1.00
2022-08-18T12:32:47.025Z,1.20
2022-08-18T12:35:41.885Z,0.50
2022-08-18T12:38:29.212Z,1.80
2022-08-18T12:41:22.920Z,1.20
2022-08-18T12:44:13.113Z,1.48
2022-08-18T12:47:00.443Z,1.20
2022-08-18T12:49:47.607Z,1.33
2022-08-18T12:52:38.940Z,0.93
2022-08-18T12:55:25.850Z,0.98
2022-08-18T12:58:12.945Z,0.98
2022-08-18T13:00:59.784Z,1.35
2022-08-18T13:07:01.333Z,1.27
2022-08-18T13:09:53.903Z,1.33
2022-08-18T13:12:41.136Z,0.70
2022-08-18T13:15:28.785Z,1.80
2022-08-18T13:18:16.731Z,1.00
2022-08-18T13:21:07.178Z,0.70
2022-08-18T13:23:54.126Z,0.75
2022-08-18T13:26:45.855Z,2.40
2022-08-18T13:29:33.024Z,3.25
2022-08-18T13:32:19.889Z,1.65
2022-08-18T13:35:13.263Z,2.50
2022-08-18T13:38:00.570Z,1.35
2022-08-18T13:40:52.015Z,0.55
2022-08-18T13:43:42.001Z,1.48
2022-08-18T13:46:30.009Z,0.65
2022-08-18T13:49:23.651Z,2.38
2022-08-18T13:52:33.417Z,2.42
2022-08-18T13:55:28.834Z,1.63
2022-08-18T13:58:17.592Z,1.10
2022-08-18T14:01:42.525Z,0.65
2022-08-18T14:04:20.101Z,0.65
2022-08-18T14:07:10.998Z,2.05
2022-08-18T14:10:04.585Z,1.35
2022-08-18T14:12:54.235Z,1.00
2022-08-18T14:15:41.906Z,1.75
2022-08-18T14:18:30.828Z,0.75
2022-08-18T14:21:35.805Z,1.70
2022-08-18T14:24:43.768Z,1.07
2022-08-18T14:27:37.339Z,1.13
2022-08-18T14:30:24.607Z,0.90
2022-08-18T14:33:11.768Z,1.60
2022-08-18T14:36:05.844Z,1.92
2022-08-18T14:38:54.070Z,0.70
2022-08-18T14:41:49.377Z,1.80
2022-08-18T14:44:41.673Z,1.00
2022-08-18T14:47:32.932Z,1.48
2022-08-18T14:50:25.678Z,1.45
2022-08-18T14:53:16.996Z,0.90
2022-08-18T14:56:07.857Z,0.80
2022-08-18T14:58:56.768Z,0.88
2022-08-18T15:01:44.273Z,1.90
2022-08-18T15:04:38.536Z,0.80
2022-08-18T15:07:41.387Z,1.00
2022-08-18T15:10:31.073Z,1.00
2022-08-18T15:13:18.474Z,1.40
2022-08-18T15:16:11.249Z,2.22
2022-08-18T15:18:58.122Z,1.00
2022-08-18T15:22:02.593Z,0.67
2022-08-18T15:25:06.909Z,1.20
2022-08-18T15:27:56.629Z,0.70
2022-08-18T15:30:45.554Z,1.40
2022-08-18T15:33:37.566Z,1.08
2022-08-18T15:36:28.853Z,2.88
2022-08-18T15:39:16.211Z,1.17
2022-08-18T15:42:10.317Z,1.60
2022-08-18T15:45:11.852Z,1.43
2022-08-18T15:48:00.608Z,1.30
2022-08-18T15:50:50.972Z,0.60
2022-08-18T15:53:40.051Z,2.00
2022-08-18T15:56:28.250Z,2.13
2022-08-18T15:59:15.247Z,1.25
2022-08-18T16:02:03.161Z,1.07
2022-08-18T16:04:49.979Z,0.93
2022-08-18T16:07:52.223Z,2.13
2022-08-18T16:10:43.673Z,1.10
2022-08-18T16:13:31.005Z,1.48
2022-08-18T16:16:35.511Z,0.55
2022-08-18T16:19:25.691Z,1.38
2022-08-18T16:22:16.906Z,1.90
2022-08-18T16:25:04.539Z,1.83
2022-08-18T16:27:51.699Z,0.52
2022-08-18T16:30:38.617Z,0.70
2022-08-18T16:33:25.485Z,2.30
2022-08-18T16:36:16.392Z,1.83
2022-08-18T16:39:03.205Z,1.90
2022-08-18T16:41:50.497Z,0.90
2022-08-18T16:44:37.200Z,0.70
2022-08-18T16:47:23.856Z,2.25
2022-08-18T16:50:12.012Z,1.20
2022-08-18T16:53:00.284Z,2.70
2022-08-18T16:55:46.946Z,1.15
2022-08-18T16:58:51.158Z,0.90
2022-08-18T17:01:56.033Z,0.50
2022-08-18T17:04:42.956Z,0.90
2022-08-18T17:07:30.572Z,2.28
2022-08-18T17:10:22.925Z,2.10
2022-08-18T17:13:13.667Z,1.65
2022-08-18T17:16:00.773Z,2.45
2022-08-18T17:18:48.065Z,2.70
2022-08-18T17:21:35.999Z,5.57
2022-08-18T17:24:32.114Z,1.70
2022-08-18T17:27:26.902Z,2.17
2022-08-18T17:30:16.965Z,1.30
2022-08-18T17:33:05.981Z,0.90
2022-08-18T17:35:54.820Z,1.70
2022-08-18T17:38:45.384Z,3.08
2022-08-18T17:41:32.179Z,1.47
2022-08-18T17:44:20.173Z,1.85
2022-08-18T17:47:20.165Z,1.27
2022-08-18T17:50:43.120Z,2.58
2022-08-18T17:53:32.481Z,0.75
2022-08-18T17:56:21.381Z,2.33
2022-08-18T17:59:45.987Z,1.92
2022-08-18T18:02:29.276Z,0.93
2022-08-18T18:05:17.923Z,2.15
2022-08-18T18:08:05.350Z,1.23
2022-08-18T18:11:07.633Z,1.00
2022-08-18T18:13:55.200Z,1.20
2022-08-18T18:16:42.240Z,0.82
2022-08-18T18:19:33.357Z,2.05
2022-08-18T18:22:23.861Z,1.60
2022-08-18T18:25:11.937Z,1.30
2022-08-18T18:27:59.003Z,2.10
2022-08-18T18:30:45.757Z,2.30
2022-08-18T18:33:32.873Z,1.52
2022-08-18T18:36:32.055Z,2.00
2022-08-18T18:39:21.370Z,1.40
2022-08-18T18:42:20.402Z,2.20
2022-08-18T18:45:09.613Z,1.50
2022-08-18T18:48:03.615Z,1.33
2022-08-18T18:50:56.137Z,2.90
2022-08-18T18:53:51.820Z,4.05
2022-08-18T18:56:41.670Z,2.25
2022-08-18T18:59:38.593Z,1.33
2022-08-18T19:02:34.770Z,1.08
2022-08-18T19:05:26.935Z,1.60
2022-08-18T19:08:22.047Z,1.37
2022-08-18T19:11:14.909Z,2.63
2022-08-18T19:14:03.373Z,2.40
2022-08-18T19:16:55.980Z,3.28
2022-08-18T19:19:45.814Z,1.23
2022-08-18T19:22:36.402Z,2.30
2022-08-18T19:25:25.009Z,5.03
2022-08-18T19:28:17.889Z,3.42
2022-08-18T19:31:07.077Z,2.10
2022-08-18T19:33:58.052Z,3.90
2022-08-18T19:36:48.452Z,3.97
2022-08-18T19:39:40.314Z,2.15
2022-08-18T19:42:35.231Z,2.00
2022-08-18T19:45:30.050Z,1.70
2022-08-18T19:48:18.581Z,1.73
2022-08-18T19:51:07.948Z,2.80
2022-08-18T19:54:05.477Z,3.70
2022-08-18T19:57:00.346Z,2.00
2022-08-18T20:00:05.971Z,3.03
2022-08-18T20:03:22.307Z,2.42
2022-08-18T20:06:34.716Z,2.17
2022-08-18T20:09:36.827Z,2.10
2022-08-18T20:12:37.570Z,2.55
2022-08-18T20:15:25.608Z,1.35
2022-08-18T20:18:23.900Z,3.65
2022-08-18T20:21:26.369Z,2.50
2022-08-18T20:24:31.841Z,4.47
2022-08-18T20:27:36.663Z,2.28
2022-08-18T20:30:27.304Z,2.67
2022-08-18T20:33:17.536Z,2.67
2022-08-18T20:36:13.091Z,3.40
2022-08-18T20:39:00.814Z,2.47
2022-08-18T20:41:50.399Z,2.40
2022-08-18T20:44:45.813Z,3.33
2022-08-18T20:47:47.730Z,2.20
2022-08-18T20:50:49.405Z,1.90
2022-08-18T20:53:59.510Z,1.92
2022-08-18T20:56:50.596Z,1.77
2022-08-18T20:59:41.094Z,3.70
2022-08-18T21:02:29.235Z,3.80
2022-08-18T21:05:28.294Z,2.50
2022-08-18T21:08:24.727Z,4.85
2022-08-18T21:11:29.822Z,1.50
2022-08-18T21:14:25.889Z,1.80
2022-08-18T21:17:17.591Z,1.67
2022-08-18T21:20:07.050Z,1.90
2022-08-18T21:23:04.131Z,2.90
2022-08-18T21:25:53.732Z,1.80
2022-08-18T21:28:48.307Z,2.38
2022-08-18T21:31:44.132Z,3.42
2022-08-18T21:34:33.214Z,2.28
2022-08-18T21:37:21.117Z,1.85
2022-08-18T21:40:08.657Z,3.25
2022-08-18T21:42:55.826Z,2.88
2022-08-18T21:45:47.799Z,2.70
2022-08-18T21:48:35.940Z,4.80
2022-08-18T21:51:24.281Z,3.30
2022-08-18T21:54:11.313Z,2.88
2022-08-18T21:57:16.694Z,4.47
2022-08-18T22:00:16.879Z,4.00
2022-08-18T22:03:13.346Z,4.07
2022-08-18T22:06:02.938Z,4.20
2022-08-18T22:08:50.922Z,5.25
2022-08-18T22:12:02.121Z,5.10
2022-08-18T22:14:54.531Z,2.90
2022-08-18T22:17:44.942Z,3.58
2022-08-18T22:20:48.837Z,6.20
2022-08-18T22:23:55.971Z,5.93
2022-08-18T22:26:43.065Z,3.55
2022-08-18T22:29:33.795Z,3.73
2022-08-18T22:32:21.459Z,3.75
2022-08-18T22:35:08.929Z,2.75
2022-08-18T22:37:57.136Z,3.90
2022-08-18T22:40:44.082Z,3.95
2022-08-18T22:43:30.908Z,6.22
2022-08-18T22:46:24.415Z,2.75
2022-08-18T22:49:11.589Z,2.53
2022-08-18T22:51:59.418Z,3.65
2022-08-18T22:54:49.519Z,3.50
2022-08-18T22:57:37.933Z,3.67
2022-08-18T23:00:26.447Z,7.13
2022-08-18T23:03:13.470Z,2.75
2022-08-18T23:06:00.655Z,2.90
2022-08-18T23:08:54.335Z,2.80
2022-08-18T23:11:44.174Z,3.67
2022-08-18T23:14:33.077Z,3.10
2022-08-18T23:17:21.367Z,4.22
2022-08-18T23:20:09.706Z,3.35
2022-08-18T23:22:58.822Z,5.95
2022-08-18T23:25:45.641Z,2.58
2022-08-18T23:28:34.495Z,4.18
2022-08-18T23:31:21.306Z,3.58
2022-08-18T23:34:09.569Z,3.37
2022-08-18T23:36:57.418Z,4.82
2022-08-18T23:39:47.871Z,2.80
2022-08-18T23:42:34.700Z,5.60
2022-08-18T23:45:23.148Z,5.90
2022-08-18T23:48:10.914Z,3.58
2022-08-18T23:51:02.974Z,3.72
2022-08-18T23:53:52.197Z,3.92
2022-08-18T23:56:39.571Z,6.25
2022-08-18T23:59:27.040Z,4.82
